Flight Track Log - Related Links

Times and Time Zones

All times are in EDT time to prevent confusion due to time zone crossing. See the SKZ3801 flight status page for this flight to view local times or setup timezone preferences in your user account.

Time Position Orientation Groundspeed Altitude Reporting Facility
EDT Latitude Longitude Course Direction KTS MPH feet Rate Location/Type
Thu 12:31:21 PM 18.5000 -67.1000 298° West 140 161 800  Level San Center
Thu 12:32:21 PM 18.5167 -67.1333 298° West 170 196 1,300 450 Climbing San Center
Thu 12:33:21 PM 18.5000 -67.2000 255° West 190 219 1,700 500 Climbing San Center
Thu 12:34:21 PM 18.5000 -67.2500 270° West 180 207 2,300 545 Climbing San Center
Thu 12:35:22 PM 18.4833 -67.3000 251° West 180 207 2,800 545 Climbing San Center
Thu 12:36:22 PM 18.4833 -67.3500 270° West 170 196 3,400 550 Climbing San Center
Thu 12:37:22 PM 18.4667 -67.4000 251° West 170 196 3,900 545 Climbing San Center
Thu 12:38:23 PM 18.4500 -67.4500 251° West 170 196 4,500 545 Climbing San Center
Thu 12:39:23 PM 18.4500 -67.5000 270° West 170 196 5,000 500 Climbing San Center
Thu 12:40:23 PM 18.4500 -67.5500 270° West 170 196 5,500 446 Climbing San Center
Thu 12:41:24 PM 18.4500 -67.6000 270° West 180 207 5,900 446 Climbing San Center
Thu 12:42:24 PM 18.4500 -67.6500 270° West 180 207 6,400 450 Climbing San Center
Thu 12:43:24 PM 18.4333 -67.7000 251° West 180 207 6,800 446 Climbing San Center
Thu 12:44:25 PM 18.4333 -67.7500 270° West 180 207 7,300 595 Climbing San Center
Thu 12:45:25 PM 18.4333 -67.8167 270° West 180 207 8,000 350 Climbing San Center
Thu 12:46:25 PM 18.4333 -67.8667 270° West 200 230 8,000  Level San Center
Thu 12:47:26 PM 18.4333 -67.9167 270° West 190 219 8,000  Level San Center
Thu 12:48:26 PM 18.4333 -67.9833 270° West 190 219 8,000  Level San Center
Thu 12:50:00 PM 18.4650 -68.0657 268° West  Level FlightAware
Thu 12:57:00 PM 18.4551 -68.4345 268° West  Level FlightAware
Thu 12:58:00 PM 18.4536 -68.4872 268° West  Level FlightAware
Thu 12:59:00 PM 18.4521 -68.5399 268° West  Level FlightAware
Thu 01:00:00 PM 18.4506 -68.5926 268° West  Level FlightAware
Thu 01:01:00 PM 18.4491 -68.6453 268° West  Level FlightAware
Thu 01:02:00 PM 18.4476 -68.6979 268° West  Level FlightAware
Thu 01:03:00 PM 18.4460 -68.7506 268° West  Level FlightAware
Thu 01:04:00 PM 18.4445 -68.8033 268° West  Level FlightAware
Thu 01:05:00 PM 18.4429 -68.8560 268° West  Level FlightAware
Thu 01:06:00 PM 18.4413 -68.9087 268° West  Level FlightAware
Thu 01:07:00 PM 18.4397 -68.9613 268° West  Level FlightAware
Thu 01:08:00 PM 18.4381 -69.0140 268° West  Level FlightAware
Thu 01:09:00 PM 18.4365 -69.0667 268° West  Level FlightAware
Thu 01:10:00 PM 18.4348 -69.1194 268° West  Level FlightAware
Thu 01:11:00 PM 18.4333 -69.1720 270° West  Level FlightAware
Thu 01:12:00 PM 18.4333 -69.2247 270° West  Level FlightAware
Thu 01:13:00 PM 18.4333 -69.2774 270° West  Level FlightAware
Thu 01:14:00 PM 18.4333 -69.3301 270° West  Level FlightAware
Thu 01:15:00 PM 18.4333 -69.3828 270° West  Level FlightAware
Thu 01:16:00 PM 18.4333 -69.4356 270° West  Level FlightAware
Thu 01:17:00 PM 18.4333 -69.4883 270° West  Level FlightAware
Thu 01:18:00 PM 18.4333 -69.5410 270° West  Level FlightAware
Thu 01:19:00 PM 18.4280 -69.5931 258° West  Level FlightAware
Thu 01:20:00 PM 18.4177 -69.6447 258° West  Level FlightAware
Thu 01:21:00 PM 18.4167 -69.6500 258° West  Level FlightAware
Thu 01:22:00 PM 18.4297 -69.6689 258° West  Level Estimated
Thu 01:23:00 PM 18.4297 -69.6689 258° West  Level Estimated
Thu 01:24:00 PM 18.4297 -69.6689 258° West  Level Estimated
Thu 01:25:00 PM 18.4297 -69.6689 258° West  Level Estimated
Thu 01:26:00 PM 18.4297 -69.6689 258° West  Level Estimated
Thu 01:27:00 PM 18.4297 -69.6689 258° West  Level Estimated
Thu 01:28:00 PM 18.4297 -69.6689 258° West  Level Estimated
Thu 01:29:00 PM 18.4297 -69.6689 258° West  Level Estimated
Thu 01:30:00 PM 18.4297 -69.6689 258° West  Level Estimated
Thu 01:31:00 PM 18.4297 -69.6689 258° West  Level Estimated

Login

Don't have an account? Register now (free) for customized features, flight alerts, and more!